KWJF/WJF METAR and TAF weather

Enter ICAO airport designator
Station Type Date Time Source
KWJF METAR 2019/10/15 08:56 UTC NOAA

KWJF 150856Z AUTO 00000KT 10SM CLR 06/M07 A3006 RMK AO2 SLP172 T00611067 53009


Station Type Date Time Source
KWJF Decoded METAR 2019/10/15 08:56 UTC NOAA

LANCASTER FOX AIRFIELD, CA, United States (KWJF) 34-44N 118-13W
Oct 15, 2019 - 04:56 AM EDT / 2019.10.15 0856 UTC
Wind: Calm:0
Visibility: 10 mile(s):0
Sky conditions: clear
Temperature: 43.0 F (6.1 C)
Dew Point: 19.9 F (-6.7 C)
Relative Humidity: 39%
Pressure (altimeter): 30.06 in. Hg (1017 hPa)
Pressure tendency: 0.03 inches (0.9 hPa) higher than three hours ago
ob: KWJF 150856Z AUTO 00000KT 10SM CLR 06/M07 A3006 RMK AO2 SLP172 T00611067 53009
cycle: 9

Station Type Date Time Source
KWJF TAF 2019/10/15 06:28 UTC NOAA

TAF KWJF 150525Z 1506/1606 VRB03KT P6SM SKC
FM151800 07006KT P6SM SKC
FM160000 31006KT P6SM SKC

Example: see airport list